Gypsum, Ohio
Current Conditions -  °F | °C
As of 4:33 AM on Monday 20 Oct 2014 (Local Time) from KPCW Reporting Station
Scattered Clouds Scattered Clouds  
Wind Chill: 50°   Ceiling: Unl
Heat Index: 50°   Visibility: 10mi
Dew Point: 41°   Wind: 8mph
Humidity: 71%   Direction: 210°SSW
Pressure: 29.94"   Gusts: NA
Location:  41.49°N, 82.88°W
Report Text: KPCW 200833Z AUTO 21007KT 10SM SCT110 10/05 A2994 RMK AO2 $
Loading
Personal Weather Stations






























Interactive Weather Map
Tropical Storm Tracking
New forecast layout! Learn more

10-Day Weather Forecast

Advertisements
Track Severe Weather on mobile